sensor_id;sensor_type;location;lat;lon;timestamp;pressure;altitude;pressure_sealevel;temperature;humidity
46768;BME280;69007;48.978;18.066;2023-04-15T00:01:00;96358.00;;;4.77;100.00
46768;BME280;69007;48.978;18.066;2023-04-15T00:03:25;96353.97;;;4.42;100.00
46768;BME280;69007;48.978;18.066;2023-04-15T00:05:51;96359.84;;;4.34;100.00
46768;BME280;69007;48.978;18.066;2023-04-15T00:08:16;96358.50;;;4.37;100.00
46768;BME280;69007;48.978;18.066;2023-04-15T00:10:42;96351.31;;;4.48;100.00
46768;BME280;69007;48.978;18.066;2023-04-15T00:13:08;96353.66;;;4.76;100.00
46768;BME280;69007;48.978;18.066;2023-04-15T00:15:34;96359.94;;;4.87;100.00
46768;BME280;69007;48.978;18.066;2023-04-15T00:17:59;96350.00;;;4.93;100.00
46768;BME280;69007;48.978;18.066;2023-04-15T00:20:25;96358.91;;;4.93;100.00
46768;BME280;69007;48.978;18.066;2023-04-15T00:22:50;96345.59;;;4.76;100.00
46768;BME280;69007;48.978;18.066;2023-04-15T00:25:16;96360.22;;;4.86;100.00
46768;BME280;69007;48.978;18.066;2023-04-15T00:27:42;96355.91;;;4.90;100.00
46768;BME280;69007;48.978;18.066;2023-04-15T00:30:08;96349.72;;;4.89;100.00
46768;BME280;69007;48.978;18.066;2023-04-15T00:32:33;96336.72;;;4.81;100.00
46768;BME280;69007;48.978;18.066;2023-04-15T00:34:58;96349.00;;;5.09;100.00
46768;BME280;69007;48.978;18.066;2023-04-15T00:37:24;96347.00;;;4.89;100.00
46768;BME280;69007;48.978;18.066;2023-04-15T00:39:49;96353.94;;;4.75;100.00
46768;BME280;69007;48.978;18.066;2023-04-15T00:42:15;96332.81;;;4.61;100.00
46768;BME280;69007;48.978;18.066;2023-04-15T00:44:40;96365.88;;;4.89;100.00
46768;BME280;69007;48.978;18.066;2023-04-15T00:47:07;96372.00;;;4.74;100.00
46768;BME280;69007;48.978;18.066;2023-04-15T00:49:32;96360.41;;;4.74;100.00
46768;BME280;69007;48.978;18.066;2023-04-15T00:51:58;96358.16;;;4.60;100.00
46768;BME280;69007;48.978;18.066;2023-04-15T00:54:23;96357.00;;;4.51;100.00
46768;BME280;69007;48.978;18.066;2023-04-15T00:56:49;96357.34;;;4.65;100.00
46768;BME280;69007;48.978;18.066;2023-04-15T00:59:16;96343.56;;;4.56;100.00
46768;BME280;69007;48.978;18.066;2023-04-15T01:01:44;96352.78;;;4.60;100.00
46768;BME280;69007;48.978;18.066;2023-04-15T01:04:11;96357.09;;;4.67;100.00
46768;BME280;69007;48.978;18.066;2023-04-15T01:06:37;96355.50;;;4.66;100.00
46768;BME280;69007;48.978;18.066;2023-04-15T01:09:02;96366.78;;;4.63;100.00
46768;BME280;69007;48.978;18.066;2023-04-15T01:11:28;96336.44;;;4.40;100.00
46768;BME280;69007;48.978;18.066;2023-04-15T01:13:55;96362.66;;;4.50;100.00
46768;BME280;69007;48.978;18.066;2023-04-15T01:16:21;96357.19;;;4.39;100.00
46768;BME280;69007;48.978;18.066;2023-04-15T01:18:47;96362.56;;;4.39;100.00
46768;BME280;69007;48.978;18.066;2023-04-15T01:21:13;96363.88;;;4.37;100.00
46768;BME280;69007;48.978;18.066;2023-04-15T01:23:38;96338.75;;;4.26;100.00
46768;BME280;69007;48.978;18.066;2023-04-15T01:26:05;96372.09;;;4.52;100.00
46768;BME280;69007;48.978;18.066;2023-04-15T01:28:34;96342.44;;;4.47;100.00
46768;BME280;69007;48.978;18.066;2023-04-15T01:31:07;96373.78;;;4.64;100.00
46768;BME280;69007;48.978;18.066;2023-04-15T01:33:35;96375.94;;;4.61;100.00
46768;BME280;69007;48.978;18.066;2023-04-15T01:36:03;96360.25;;;4.53;100.00
46768;BME280;69007;48.978;18.066;2023-04-15T01:38:34;96352.09;;;4.43;100.00
46768;BME280;69007;48.978;18.066;2023-04-15T01:41:01;96348.81;;;4.36;100.00
46768;BME280;69007;48.978;18.066;2023-04-15T01:43:30;96321.53;;;4.27;100.00
46768;BME280;69007;48.978;18.066;2023-04-15T01:45:58;96349.41;;;4.43;100.00
46768;BME280;69007;48.978;18.066;2023-04-15T01:48:30;96317.25;;;4.31;100.00
46768;BME280;69007;48.978;18.066;2023-04-15T01:50:57;96332.25;;;4.54;100.00
46768;BME280;69007;48.978;18.066;2023-04-15T01:53:24;96319.75;;;4.43;100.00
46768;BME280;69007;48.978;18.066;2023-04-15T01:55:50;96337.66;;;4.59;100.00
46768;BME280;69007;48.978;18.066;2023-04-15T01:58:16;96328.75;;;4.54;100.00
46768;BME280;69007;48.978;18.066;2023-04-15T02:00:41;96342.06;;;4.71;100.00
46768;BME280;69007;48.978;18.066;2023-04-15T02:03:07;96346.09;;;4.73;100.00
46768;BME280;69007;48.978;18.066;2023-04-15T02:05:32;96330.72;;;4.69;100.00
46768;BME280;69007;48.978;18.066;2023-04-15T02:07:58;96336.63;;;4.66;100.00
46768;BME280;69007;48.978;18.066;2023-04-15T02:10:23;96346.94;;;4.74;100.00
46768;BME280;69007;48.978;18.066;2023-04-15T02:12:48;96329.63;;;4.70;100.00
46768;BME280;69007;48.978;18.066;2023-04-15T02:15:14;96325.59;;;4.67;100.00
46768;BME280;69007;48.978;18.066;2023-04-15T02:17:39;96325.03;;;4.65;100.00
46768;BME280;69007;48.978;18.066;2023-04-15T02:20:05;96326.13;;;4.64;100.00
46768;BME280;69007;48.978;18.066;2023-04-15T02:22:31;96350.69;;;4.73;100.00
46768;BME280;69007;48.978;18.066;2023-04-15T02:24:56;96345.81;;;4.70;100.00
46768;BME280;69007;48.978;18.066;2023-04-15T02:27:22;96329.03;;;4.57;100.00
46768;BME280;69007;48.978;18.066;2023-04-15T02:29:47;96331.59;;;4.42;100.00
46768;BME280;69007;48.978;18.066;2023-04-15T02:32:15;96343.75;;;4.45;100.00
46768;BME280;69007;48.978;18.066;2023-04-15T02:34:40;96338.50;;;4.28;100.00
46768;BME280;69007;48.978;18.066;2023-04-15T02:37:11;96353.09;;;4.37;100.00
46768;BME280;69007;48.978;18.066;2023-04-15T02:39:36;96337.69;;;4.27;100.00
46768;BME280;69007;48.978;18.066;2023-04-15T02:42:02;96346.38;;;4.07;100.00
46768;BME280;69007;48.978;18.066;2023-04-15T02:44:27;96353.53;;;4.23;100.00
46768;BME280;69007;48.978;18.066;2023-04-15T02:46:53;96335.41;;;4.14;100.00
46768;BME280;69007;48.978;18.066;2023-04-15T02:49:22;96353.28;;;4.25;100.00
46768;BME280;69007;48.978;18.066;2023-04-15T02:51:47;96368.75;;;4.40;100.00
46768;BME280;69007;48.978;18.066;2023-04-15T02:54:20;96359.69;;;4.51;100.00
46768;BME280;69007;48.978;18.066;2023-04-15T02:56:49;96359.63;;;4.41;100.00
46768;BME280;69007;48.978;18.066;2023-04-15T02:59:15;96338.09;;;4.46;100.00
46768;BME280;69007;48.978;18.066;2023-04-15T03:01:40;96354.59;;;4.55;100.00
46768;BME280;69007;48.978;18.066;2023-04-15T03:04:06;96343.88;;;4.65;100.00
46768;BME280;69007;48.978;18.066;2023-04-15T03:06:34;96327.16;;;4.58;100.00
46768;BME280;69007;48.978;18.066;2023-04-15T03:08:59;96347.50;;;4.81;100.00
46768;BME280;69007;48.978;18.066;2023-04-15T03:11:27;96349.19;;;4.92;100.00
46768;BME280;69007;48.978;18.066;2023-04-15T03:13:53;96345.47;;;4.98;100.00
46768;BME280;69007;48.978;18.066;2023-04-15T03:16:18;96330.56;;;4.86;100.00
46768;BME280;69007;48.978;18.066;2023-04-15T03:18:43;96331.84;;;4.78;100.00
46768;BME280;69007;48.978;18.066;2023-04-15T03:21:09;96351.63;;;4.94;100.00
46768;BME280;69007;48.978;18.066;2023-04-15T03:23:34;96321.84;;;4.73;100.00
46768;BME280;69007;48.978;18.066;2023-04-15T03:26:03;96352.75;;;5.03;100.00
46768;BME280;69007;48.978;18.066;2023-04-15T03:28:29;96356.78;;;5.01;100.00
46768;BME280;69007;48.978;18.066;2023-04-15T03:30:55;96357.06;;;5.04;100.00
46768;BME280;69007;48.978;18.066;2023-04-15T03:33:20;96364.91;;;5.06;100.00
46768;BME280;69007;48.978;18.066;2023-04-15T03:35:46;96345.78;;;5.07;100.00
46768;BME280;69007;48.978;18.066;2023-04-15T03:38:11;96383.06;;;5.21;100.00
46768;BME280;69007;48.978;18.066;2023-04-15T03:40:40;96383.84;;;5.21;100.00
46768;BME280;69007;48.978;18.066;2023-04-15T03:43:05;96382.28;;;5.30;100.00
46768;BME280;69007;48.978;18.066;2023-04-15T03:45:31;96379.59;;;5.30;100.00
46768;BME280;69007;48.978;18.066;2023-04-15T03:47:56;96376.66;;;5.37;100.00
46768;BME280;69007;48.978;18.066;2023-04-15T03:50:21;96356.88;;;5.21;100.00
46768;BME280;69007;48.978;18.066;2023-04-15T03:52:47;96385.28;;;5.34;100.00
46768;BME280;69007;48.978;18.066;2023-04-15T03:55:12;96379.88;;;5.34;100.00
46768;BME280;69007;48.978;18.066;2023-04-15T03:57:38;96391.75;;;5.33;100.00
46768;BME280;69007;48.978;18.066;2023-04-15T04:00:05;96367.16;;;5.24;100.00
46768;BME280;69007;48.978;18.066;2023-04-15T04:02:30;96384.00;;;5.47;100.00
46768;BME280;69007;48.978;18.066;2023-04-15T04:04:55;96391.31;;;5.51;100.00
46768;BME280;69007;48.978;18.066;2023-04-15T04:07:22;96376.19;;;5.50;100.00
46768;BME280;69007;48.978;18.066;2023-04-15T04:09:47;96385.13;;;5.56;100.00
46768;BME280;69007;48.978;18.066;2023-04-15T04:12:13;96368.28;;;5.33;100.00
46768;BME280;69007;48.978;18.066;2023-04-15T04:14:38;96362.88;;;5.28;100.00
46768;BME280;69007;48.978;18.066;2023-04-15T04:17:04;96388.56;;;5.41;100.00
46768;BME280;69007;48.978;18.066;2023-04-15T04:19:29;96377.78;;;5.46;100.00
46768;BME280;69007;48.978;18.066;2023-04-15T04:21:55;96385.28;;;5.39;100.00
46768;BME280;69007;48.978;18.066;2023-04-15T04:24:20;96373.06;;;5.21;100.00
46768;BME280;69007;48.978;18.066;2023-04-15T04:26:45;96376.38;;;5.33;100.00
46768;BME280;69007;48.978;18.066;2023-04-15T04:29:11;96395.28;;;5.39;100.00
46768;BME280;69007;48.978;18.066;2023-04-15T04:31:36;96401.81;;;5.48;100.00
46768;BME280;69007;48.978;18.066;2023-04-15T04:34:02;96392.03;;;5.37;100.00
46768;BME280;69007;48.978;18.066;2023-04-15T04:36:27;96386.66;;;5.37;100.00
46768;BME280;69007;48.978;18.066;2023-04-15T04:38:52;96412.03;;;5.46;100.00
46768;BME280;69007;48.978;18.066;2023-04-15T04:41:18;96382.63;;;5.44;100.00
46768;BME280;69007;48.978;18.066;2023-04-15T04:43:43;96391.25;;;5.41;100.00
46768;BME280;69007;48.978;18.066;2023-04-15T04:46:08;96394.25;;;5.45;100.00
46768;BME280;69007;48.978;18.066;2023-04-15T04:48:34;96400.50;;;5.61;100.00
46768;BME280;69007;48.978;18.066;2023-04-15T04:51:00;96402.94;;;5.67;100.00
46768;BME280;69007;48.978;18.066;2023-04-15T04:53:26;96399.72;;;5.70;100.00
46768;BME280;69007;48.978;18.066;2023-04-15T04:55:52;96417.88;;;5.90;100.00
46768;BME280;69007;48.978;18.066;2023-04-15T04:58:17;96394.38;;;5.81;100.00
46768;BME280;69007;48.978;18.066;2023-04-15T05:00:43;96392.75;;;5.80;100.00
46768;BME280;69007;48.978;18.066;2023-04-15T05:03:08;96398.44;;;5.83;100.00
46768;BME280;69007;48.978;18.066;2023-04-15T05:05:33;96425.72;;;5.92;100.00
46768;BME280;69007;48.978;18.066;2023-04-15T05:08:01;96419.78;;;5.95;100.00
46768;BME280;69007;48.978;18.066;2023-04-15T05:10:26;96399.78;;;5.81;100.00
46768;BME280;69007;48.978;18.066;2023-04-15T05:12:51;96417.41;;;5.99;100.00
46768;BME280;69007;48.978;18.066;2023-04-15T05:15:17;96422.00;;;5.98;100.00
46768;BME280;69007;48.978;18.066;2023-04-15T05:17:42;96412.56;;;6.01;100.00
46768;BME280;69007;48.978;18.066;2023-04-15T05:20:09;96417.44;;;6.04;100.00
46768;BME280;69007;48.978;18.066;2023-04-15T05:22:34;96426.59;;;5.98;100.00
46768;BME280;69007;48.978;18.066;2023-04-15T05:25:00;96398.19;;;5.95;100.00
46768;BME280;69007;48.978;18.066;2023-04-15T05:27:25;96406.34;;;6.00;100.00
46768;BME280;69007;48.978;18.066;2023-04-15T05:29:50;96397.00;;;5.65;100.00
46768;BME280;69007;48.978;18.066;2023-04-15T05:32:16;96426.03;;;5.96;100.00
46768;BME280;69007;48.978;18.066;2023-04-15T05:34:41;96420.94;;;5.99;100.00
46768;BME280;69007;48.978;18.066;2023-04-15T05:37:07;96411.53;;;6.12;100.00
46768;BME280;69007;48.978;18.066;2023-04-15T05:39:32;96421.22;;;6.18;100.00
46768;BME280;69007;48.978;18.066;2023-04-15T05:41:58;96404.69;;;5.94;100.00
46768;BME280;69007;48.978;18.066;2023-04-15T05:44:24;96429.84;;;6.05;100.00
46768;BME280;69007;48.978;18.066;2023-04-15T05:46:49;96413.25;;;5.76;100.00
46768;BME280;69007;48.978;18.066;2023-04-15T05:49:15;96395.72;;;5.78;100.00
46768;BME280;69007;48.978;18.066;2023-04-15T05:51:40;96437.06;;;5.89;100.00
46768;BME280;69007;48.978;18.066;2023-04-15T05:54:05;96424.69;;;5.98;100.00
46768;BME280;69007;48.978;18.066;2023-04-15T05:56:31;96421.50;;;6.22;100.00
46768;BME280;69007;48.978;18.066;2023-04-15T05:58:56;96421.47;;;6.01;100.00
46768;BME280;69007;48.978;18.066;2023-04-15T06:01:22;96408.19;;;5.95;100.00
46768;BME280;69007;48.978;18.066;2023-04-15T06:03:47;96427.31;;;5.83;100.00
46768;BME280;69007;48.978;18.066;2023-04-15T06:06:12;96410.50;;;5.65;100.00
46768;BME280;69007;48.978;18.066;2023-04-15T06:08:38;96450.22;;;5.70;100.00
46768;BME280;69007;48.978;18.066;2023-04-15T06:11:03;96426.72;;;5.70;100.00
46768;BME280;69007;48.978;18.066;2023-04-15T06:13:30;96431.56;;;5.68;100.00
46768;BME280;69007;48.978;18.066;2023-04-15T06:15:55;96438.13;;;5.83;100.00
46768;BME280;69007;48.978;18.066;2023-04-15T06:18:20;96446.50;;;5.86;100.00
46768;BME280;69007;48.978;18.066;2023-04-15T06:20:46;96427.78;;;5.64;100.00
46768;BME280;69007;48.978;18.066;2023-04-15T06:23:11;96452.72;;;5.92;100.00
46768;BME280;69007;48.978;18.066;2023-04-15T06:25:37;96444.56;;;5.77;100.00
46768;BME280;69007;48.978;18.066;2023-04-15T06:28:02;96460.25;;;5.80;100.00
46768;BME280;69007;48.978;18.066;2023-04-15T06:30:27;96462.91;;;5.75;100.00
46768;BME280;69007;48.978;18.066;2023-04-15T06:32:54;96457.56;;;5.90;100.00
46768;BME280;69007;48.978;18.066;2023-04-15T06:35:19;96444.44;;;6.04;100.00
46768;BME280;69007;48.978;18.066;2023-04-15T06:37:44;96457.06;;;5.93;100.00
46768;BME280;69007;48.978;18.066;2023-04-15T06:40:10;96430.56;;;5.90;100.00
46768;BME280;69007;48.978;18.066;2023-04-15T06:42:36;96433.63;;;6.04;100.00
46768;BME280;69007;48.978;18.066;2023-04-15T06:45:02;96457.72;;;6.26;100.00
46768;BME280;69007;48.978;18.066;2023-04-15T06:47:28;96438.75;;;6.00;100.00
46768;BME280;69007;48.978;18.066;2023-04-15T06:49:53;96457.22;;;6.34;100.00
46768;BME280;69007;48.978;18.066;2023-04-15T06:52:18;96454.78;;;6.48;100.00
46768;BME280;69007;48.978;18.066;2023-04-15T06:54:44;96429.13;;;6.61;100.00
46768;BME280;69007;48.978;18.066;2023-04-15T06:57:09;96448.06;;;6.66;100.00
46768;BME280;69007;48.978;18.066;2023-04-15T06:59:35;96452.41;;;6.67;100.00
46768;BME280;69007;48.978;18.066;2023-04-15T07:02:00;96456.16;;;6.76;100.00
46768;BME280;69007;48.978;18.066;2023-04-15T07:04:26;96438.06;;;6.72;100.00
46768;BME280;69007;48.978;18.066;2023-04-15T07:06:52;96446.16;;;7.08;100.00
46768;BME280;69007;48.978;18.066;2023-04-15T07:09:18;96457.00;;;7.13;100.00
46768;BME280;69007;48.978;18.066;2023-04-15T07:11:44;96457.53;;;7.20;100.00
46768;BME280;69007;48.978;18.066;2023-04-15T07:14:09;96462.66;;;7.16;100.00
46768;BME280;69007;48.978;18.066;2023-04-15T07:16:35;96457.22;;;7.32;100.00
46768;BME280;69007;48.978;18.066;2023-04-15T07:19:00;96471.03;;;7.46;100.00
46768;BME280;69007;48.978;18.066;2023-04-15T07:21:25;96454.53;;;7.27;100.00
46768;BME280;69007;48.978;18.066;2023-04-15T07:23:51;96461.00;;;7.26;100.00
46768;BME280;69007;48.978;18.066;2023-04-15T07:26:17;96486.97;;;7.47;100.00
46768;BME280;69007;48.978;18.066;2023-04-15T07:28:42;96474.53;;;7.46;100.00
46768;BME280;69007;48.978;18.066;2023-04-15T07:31:07;96481.56;;;7.37;100.00
46768;BME280;69007;48.978;18.066;2023-04-15T07:33:33;96476.19;;;7.27;100.00
46768;BME280;69007;48.978;18.066;2023-04-15T07:35:58;96467.19;;;7.52;100.00
46768;BME280;69007;48.978;18.066;2023-04-15T07:38:24;96459.25;;;7.86;100.00
46768;BME280;69007;48.978;18.066;2023-04-15T07:40:49;96486.00;;;8.08;100.00
46768;BME280;69007;48.978;18.066;2023-04-15T07:43:15;96482.56;;;8.47;100.00
46768;BME280;69007;48.978;18.066;2023-04-15T07:45:40;96486.81;;;8.64;100.00
46768;BME280;69007;48.978;18.066;2023-04-15T07:48:06;96468.78;;;8.39;100.00
46768;BME280;69007;48.978;18.066;2023-04-15T07:50:32;96489.66;;;7.63;100.00
46768;BME280;69007;48.978;18.066;2023-04-15T07:52:57;96453.88;;;7.76;100.00
46768;BME280;69007;48.978;18.066;2023-04-15T07:55:23;96491.22;;;7.84;100.00
46768;BME280;69007;48.978;18.066;2023-04-15T07:57:49;96508.56;;;7.78;100.00
46768;BME280;69007;48.978;18.066;2023-04-15T08:00:15;96502.59;;;7.81;100.00
46768;BME280;69007;48.978;18.066;2023-04-15T08:02:41;96484.22;;;7.73;100.00
46768;BME280;69007;48.978;18.066;2023-04-15T08:05:12;96509.06;;;7.96;100.00
46768;BME280;69007;48.978;18.066;2023-04-15T08:07:38;96499.28;;;8.00;100.00
46768;BME280;69007;48.978;18.066;2023-04-15T08:10:04;96499.38;;;8.39;100.00
46768;BME280;69007;48.978;18.066;2023-04-15T08:12:30;96499.03;;;8.61;100.00
46768;BME280;69007;48.978;18.066;2023-04-15T08:14:55;96482.50;;;9.02;100.00
46768;BME280;69007;48.978;18.066;2023-04-15T08:17:21;96513.16;;;10.15;100.00
46768;BME280;69007;48.978;18.066;2023-04-15T08:19:47;96500.66;;;10.38;100.00
46768;BME280;69007;48.978;18.066;2023-04-15T08:22:13;96477.34;;;10.32;100.00
46768;BME280;69007;48.978;18.066;2023-04-15T08:24:38;96482.72;;;9.65;100.00
46768;BME280;69007;48.978;18.066;2023-04-15T08:27:03;96510.47;;;9.27;100.00
46768;BME280;69007;48.978;18.066;2023-04-15T08:29:33;96513.56;;;9.15;100.00
46768;BME280;69007;48.978;18.066;2023-04-15T08:31:59;96510.34;;;9.13;100.00
46768;BME280;69007;48.978;18.066;2023-04-15T08:34:25;96497.06;;;8.72;100.00
46768;BME280;69007;48.978;18.066;2023-04-15T08:36:51;96501.28;;;8.49;100.00
46768;BME280;69007;48.978;18.066;2023-04-15T08:39:16;96512.38;;;8.42;100.00
46768;BME280;69007;48.978;18.066;2023-04-15T08:44:17;96514.06;;;8.43;100.00
46768;BME280;69007;48.978;18.066;2023-04-15T08:46:44;96512.94;;;8.44;100.00
46768;BME280;69007;48.978;18.066;2023-04-15T08:49:10;96515.44;;;8.30;100.00
46768;BME280;69007;48.978;18.066;2023-04-15T08:51:40;96508.53;;;7.99;100.00
46768;BME280;69007;48.978;18.066;2023-04-15T08:54:09;96522.00;;;8.14;100.00
46768;BME280;69007;48.978;18.066;2023-04-15T08:56:35;96528.00;;;8.01;100.00
46768;BME280;69007;48.978;18.066;2023-04-15T08:59:01;96507.72;;;7.93;100.00
46768;BME280;69007;48.978;18.066;2023-04-15T09:01:28;96520.34;;;8.23;100.00
46768;BME280;69007;48.978;18.066;2023-04-15T09:03:53;96533.03;;;8.33;100.00
46768;BME280;69007;48.978;18.066;2023-04-15T09:06:21;96524.13;;;8.22;100.00
46768;BME280;69007;48.978;18.066;2023-04-15T09:08:47;96522.56;;;8.06;100.00
46768;BME280;69007;48.978;18.066;2023-04-15T09:11:13;96559.13;;;8.14;100.00
46768;BME280;69007;48.978;18.066;2023-04-15T09:13:38;96537.97;;;8.21;100.00
46768;BME280;69007;48.978;18.066;2023-04-15T09:16:04;96546.31;;;8.29;100.00
46768;BME280;69007;48.978;18.066;2023-04-15T09:18:32;96547.16;;;8.20;100.00
46768;BME280;69007;48.978;18.066;2023-04-15T09:21:12;96551.03;;;8.08;100.00
46768;BME280;69007;48.978;18.066;2023-04-15T09:23:39;96536.38;;;8.04;100.00
46768;BME280;69007;48.978;18.066;2023-04-15T09:26:06;96550.63;;;8.36;100.00
46768;BME280;69007;48.978;18.066;2023-04-15T09:28:32;96558.75;;;8.41;100.00
46768;BME280;69007;48.978;18.066;2023-04-15T09:31:00;96555.75;;;8.53;100.00
46768;BME280;69007;48.978;18.066;2023-04-15T09:33:28;96551.72;;;8.45;100.00
46768;BME280;69007;48.978;18.066;2023-04-15T09:36:02;96571.50;;;8.45;100.00
46768;BME280;69007;48.978;18.066;2023-04-15T09:38:28;96546.38;;;8.19;100.00
46768;BME280;69007;48.978;18.066;2023-04-15T09:40:53;96546.38;;;8.19;100.00
46768;BME280;69007;48.978;18.066;2023-04-15T09:43:19;96558.78;;;8.30;100.00
46768;BME280;69007;48.978;18.066;2023-04-15T09:45:52;96570.47;;;8.26;100.00
46768;BME280;69007;48.978;18.066;2023-04-15T09:48:22;96562.03;;;8.33;100.00
46768;BME280;69007;48.978;18.066;2023-04-15T09:50:48;96566.41;;;8.28;100.00
46768;BME280;69007;48.978;18.066;2023-04-15T09:53:21;96572.22;;;8.66;100.00
46768;BME280;69007;48.978;18.066;2023-04-15T09:55:51;96573.75;;;8.88;100.00
46768;BME280;69007;48.978;18.066;2023-04-15T09:58:18;96574.66;;;8.68;100.00
46768;BME280;69007;48.978;18.066;2023-04-15T10:00:46;96561.28;;;8.82;100.00
46768;BME280;69007;48.978;18.066;2023-04-15T10:03:13;96574.84;;;8.82;100.00
46768;BME280;69007;48.978;18.066;2023-04-15T10:05:39;96563.25;;;8.71;100.00
46768;BME280;69007;48.978;18.066;2023-04-15T10:08:04;96550.34;;;8.47;100.00
46768;BME280;69007;48.978;18.066;2023-04-15T10:10:30;96573.28;;;8.71;100.00
46768;BME280;69007;48.978;18.066;2023-04-15T10:12:57;96569.50;;;8.72;100.00
46768;BME280;69007;48.978;18.066;2023-04-15T10:15:23;96578.78;;;8.55;100.00
46768;BME280;69007;48.978;18.066;2023-04-15T10:17:52;96574.50;;;8.44;100.00
46768;BME280;69007;48.978;18.066;2023-04-15T10:20:18;96581.97;;;8.67;100.00
46768;BME280;69007;48.978;18.066;2023-04-15T10:22:45;96561.41;;;8.61;100.00
46768;BME280;69007;48.978;18.066;2023-04-15T10:25:11;96552.44;;;8.61;100.00
46768;BME280;69007;48.978;18.066;2023-04-15T10:27:38;96586.19;;;8.29;100.00
46768;BME280;69007;48.978;18.066;2023-04-15T10:30:05;96582.13;;;8.32;100.00
46768;BME280;69007;48.978;18.066;2023-04-15T10:32:31;96577.75;;;8.36;100.00
46768;BME280;69007;48.978;18.066;2023-04-15T10:34:57;96599.44;;;8.30;100.00
46768;BME280;69007;48.978;18.066;2023-04-15T10:37:36;96584.47;;;8.54;100.00
46768;BME280;69007;48.978;18.066;2023-04-15T10:43:02;96585.72;;;8.77;100.00
46768;BME280;69007;48.978;18.066;2023-04-15T10:45:33;96582.34;;;9.00;100.00
46768;BME280;69007;48.978;18.066;2023-04-15T10:48:02;96574.19;;;9.40;100.00
46768;BME280;69007;48.978;18.066;2023-04-15T10:50:30;96584.16;;;9.50;100.00
46768;BME280;69007;48.978;18.066;2023-04-15T10:52:56;96568.69;;;9.50;100.00
46768;BME280;69007;48.978;18.066;2023-04-15T10:55:26;96561.69;;;9.73;100.00
46768;BME280;69007;48.978;18.066;2023-04-15T10:57:59;96574.28;;;9.93;100.00
46768;BME280;69007;48.978;18.066;2023-04-15T11:00:27;96584.47;;;10.07;100.00
46768;BME280;69007;48.978;18.066;2023-04-15T11:05:21;96575.41;;;10.41;100.00
46768;BME280;69007;48.978;18.066;2023-04-15T11:07:56;96563.16;;;10.43;100.00
46768;BME280;69007;48.978;18.066;2023-04-15T11:12:59;96539.06;;;10.31;100.00
46768;BME280;69007;48.978;18.066;2023-04-15T11:15:36;96563.72;;;10.40;100.00
46768;BME280;69007;48.978;18.066;2023-04-15T11:20:31;96565.66;;;10.40;100.00
46768;BME280;69007;48.978;18.066;2023-04-15T11:22:56;96561.16;;;10.25;100.00
46768;BME280;69007;48.978;18.066;2023-04-15T11:25:27;96568.13;;;10.36;100.00
46768;BME280;69007;48.978;18.066;2023-04-15T11:27:53;96576.91;;;10.28;100.00
46768;BME280;69007;48.978;18.066;2023-04-15T11:30:22;96561.75;;;10.22;100.00
46768;BME280;69007;48.978;18.066;2023-04-15T11:32:49;96546.50;;;10.21;100.00
46768;BME280;69007;48.978;18.066;2023-04-15T11:35:18;96553.19;;;10.33;100.00
46768;BME280;69007;48.978;18.066;2023-04-15T11:37:44;96563.78;;;10.59;100.00
46768;BME280;69007;48.978;18.066;2023-04-15T11:40:10;96563.47;;;10.61;100.00
46768;BME280;69007;48.978;18.066;2023-04-15T11:42:36;96569.94;;;10.65;100.00
46768;BME280;69007;48.978;18.066;2023-04-15T11:45:20;96565.41;;;10.79;100.00
46768;BME280;69007;48.978;18.066;2023-04-15T11:47:45;96574.75;;;10.73;100.00
46768;BME280;69007;48.978;18.066;2023-04-15T11:52:56;96567.41;;;10.25;100.00
46768;BME280;69007;48.978;18.066;2023-04-15T11:55:22;96570.44;;;10.48;100.00
46768;BME280;69007;48.978;18.066;2023-04-15T11:58:21;96569.59;;;10.72;100.00
46768;BME280;69007;48.978;18.066;2023-04-15T12:03:40;96564.50;;;10.65;100.00
46768;BME280;69007;48.978;18.066;2023-04-15T12:11:27;96570.13;;;10.93;100.00
46768;BME280;69007;48.978;18.066;2023-04-15T12:14:03;96568.44;;;10.97;100.00
46768;BME280;69007;48.978;18.066;2023-04-15T12:16:29;96564.69;;;10.93;100.00
46768;BME280;69007;48.978;18.066;2023-04-15T12:18:57;96578.53;;;11.15;100.00
46768;BME280;69007;48.978;18.066;2023-04-15T12:21:27;96553.88;;;11.06;100.00
46768;BME280;69007;48.978;18.066;2023-04-15T12:23:57;96571.28;;;11.24;100.00
46768;BME280;69007;48.978;18.066;2023-04-15T12:26:27;96547.66;;;11.20;100.00
46768;BME280;69007;48.978;18.066;2023-04-15T12:29:00;96576.81;;;11.38;100.00
46768;BME280;69007;48.978;18.066;2023-04-15T12:31:26;96554.38;;;11.28;100.00
46768;BME280;69007;48.978;18.066;2023-04-15T12:33:57;96574.97;;;11.34;100.00
46768;BME280;69007;48.978;18.066;2023-04-15T12:36:23;96564.22;;;11.23;100.00
46768;BME280;69007;48.978;18.066;2023-04-15T12:38:49;96575.78;;;11.34;100.00
46768;BME280;69007;48.978;18.066;2023-04-15T12:41:15;96571.13;;;11.35;100.00
46768;BME280;69007;48.978;18.066;2023-04-15T12:43:40;96569.16;;;11.40;100.00
46768;BME280;69007;48.978;18.066;2023-04-15T12:46:06;96572.97;;;11.39;100.00
46768;BME280;69007;48.978;18.066;2023-04-15T12:48:33;96544.50;;;11.32;100.00
46768;BME280;69007;48.978;18.066;2023-04-15T12:50:58;96580.84;;;11.41;100.00
46768;BME280;69007;48.978;18.066;2023-04-15T12:53:23;96580.50;;;11.29;100.00
46768;BME280;69007;48.978;18.066;2023-04-15T12:55:49;96569.31;;;11.11;100.00
46768;BME280;69007;48.978;18.066;2023-04-15T12:58:14;96557.03;;;10.95;100.00
46768;BME280;69007;48.978;18.066;2023-04-15T13:00:39;96585.72;;;11.06;100.00
46768;BME280;69007;48.978;18.066;2023-04-15T13:03:05;96573.06;;;10.96;100.00
46768;BME280;69007;48.978;18.066;2023-04-15T13:05:30;96580.81;;;10.89;100.00
46768;BME280;69007;48.978;18.066;2023-04-15T13:07:56;96573.22;;;11.05;100.00